Time;durP1;ratioP1;P1;durP2;ratioP2;P2;SDS_P1;SDS_P2;PMS_P1;PMS_P2;Temp;Humidity;BMP_temperature;BMP_pressure;BME280_temperature;BME280_humidity;BME280_pressure;Samples;Min_cycle;Max_cycle;Signal;HPM_P1;HPM_P2
2021/12/14 00:01:31;;;;;;;5.45;2.65;;;;;;;;;;5076427;28;20079;-81
2021/12/14 00:03:58;;;;;;;3.58;2.22;;;;;;;;;;5085479;28;20036;-80
2021/12/14 00:06:24;;;;;;;5.18;1.92;;;;;;;;;;5086758;28;20052;-81
2021/12/14 00:08:57;;;;;;;8.27;1.75;;;5.70;99.90;;;;;;5088246;28;20028;-80
2021/12/14 00:11:46;;;;;;;5.30;1.95;;;;;;;;;;5087556;28;20035;-81
2021/12/14 00:16:57;;;;;;;5.53;2.53;;;5.80;99.90;;;;;;5086175;28;20182;-80
2021/12/14 00:19:25;;;;;;;5.85;2.00;;;;;;;;;;5080320;28;20027;-81
2021/12/14 00:21:53;;;;;;;4.90;1.67;;;;;;;;;;5087093;28;20031;-80
2021/12/14 00:24:21;;;;;;;4.28;1.58;;;;;;;;;;5085551;28;20027;-80
2021/12/14 00:26:57;;;;;;;2.95;2.10;;;;;;;;;;5086398;28;20131;-79
2021/12/14 00:29:26;;;;;;;3.95;1.60;;;;;;;;;;5084262;28;20040;-79
2021/12/14 00:31:56;;;;;;;4.70;1.67;;;5.70;99.90;;;;;;5084999;28;20047;-79
2021/12/14 00:34:33;;;;;;;6.25;2.85;;;;;;;;;;5085429;28;20060;-80
2021/12/14 00:36:59;;;;;;;5.22;2.08;;;;;;;;;;5089497;28;20127;-80
2021/12/14 00:39:27;;;;;;;3.65;1.95;;;;;;;;;;5083434;28;20087;-78
2021/12/14 00:41:52;;;;;;;5.45;1.65;;;;;;;;;;5081625;28;20032;-80
2021/12/14 00:44:20;;;;;;;5.30;2.67;;;;;;;;;;5088253;28;20025;-80
2021/12/14 00:46:47;;;;;;;7.32;2.28;;;;;;;;;;5085061;28;20065;-79
2021/12/14 00:49:13;;;;;;;5.18;2.35;;;;;;;;;;5090499;28;20028;-80
2021/12/14 00:51:40;;;;;;;6.22;1.88;;;;;;;;;;5091425;28;20039;-80
2021/12/14 00:54:08;;;;;;;4.40;1.75;;;;;;;;;;5087874;28;20071;-80
2021/12/14 00:56:34;;;;;;;4.70;2.78;;;;;;;;;;5078797;28;20051;-80
2021/12/14 00:59:01;;;;;;;7.50;1.55;;;;;;;;;;5083941;28;21128;-79
2021/12/14 01:01:30;;;;;;;4.22;1.42;;;;;;;;;;5087730;28;20024;-81
2021/12/14 01:03:58;;;;;;;12.68;2.72;;;;;;;;;;5085218;28;20036;-81
2021/12/14 01:06:26;;;;;;;8.48;2.13;;;;;;;;;;5090219;28;20037;-80
2021/12/14 01:08:52;;;;;;;3.65;1.83;;;;;;;;;;5085593;28;20480;-80
2021/12/14 01:11:34;;;;;;;3.92;1.23;;;;;;;;;;5083421;28;20480;-80
2021/12/14 01:14:13;;;;;;;5.88;1.70;;;5.90;99.90;;;;;;5079948;28;20028;-80
2021/12/14 01:17:05;;;;;;;5.65;1.90;;;;;;;;;;5080455;28;20040;-80
2021/12/14 01:19:32;;;;;;;10.68;2.00;;;;;;;;;;5083809;28;20055;-79
2021/12/14 01:25:00;;;;;;;5.03;2.08;;;;;;;;;;5085316;28;20047;-80
2021/12/14 01:27:32;;;;;;;5.00;2.20;;;;;;;;;;5088170;28;20025;-80
2021/12/14 01:30:02;;;;;;;3.95;1.35;;;;;;;;;;5084502;28;20067;-80
2021/12/14 01:32:30;;;;;;;4.20;1.95;;;;;;;;;;5081412;28;20031;-81
2021/12/14 01:34:56;;;;;;;4.50;1.80;;;;;;;;;;5082924;28;20039;-81
2021/12/14 01:37:27;;;;;;;7.18;2.22;;;5.70;99.90;;;;;;5087044;28;20027;-81
2021/12/14 01:40:06;;;;;;;3.33;1.80;;;;;;;;;;5081719;28;20040;-80
2021/12/14 01:42:36;;;;;;;6.50;1.30;;;5.80;99.90;;;;;;5087442;28;20032;-81
2021/12/14 01:45:12;;;;;;;6.95;2.65;;;;;;;;;;5081676;28;20426;-81
2021/12/14 01:47:50;;;;;;;5.13;2.08;;;;;;;;;;5085246;28;20020;-82
2021/12/14 01:50:25;;;;;;;5.75;1.98;;;;;;;;;;5087850;28;20123;-81
2021/12/14 01:52:51;;;;;;;5.32;1.73;;;;;;;;;;5089367;28;20040;-81
2021/12/14 01:55:20;;;;;;;3.95;1.55;;;;;;;;;;5085112;28;20055;-81
2021/12/14 01:57:46;;;;;;;3.15;1.85;;;;;;;;;;5083849;28;20140;-82
2021/12/14 02:00:16;;;;;;;7.53;2.80;;;;;;;;;;5081488;28;20032;-81
2021/12/14 02:02:43;;;;;;;4.63;1.40;;;;;;;;;;5084844;28;20118;-81
2021/12/14 02:05:21;;;;;;;3.65;1.77;;;;;;;;;;5086160;28;20026;-81
2021/12/14 02:07:48;;;;;;;4.28;1.98;;;;;;;;;;5089332;28;20027;-80
2021/12/14 02:10:18;;;;;;;8.70;1.63;;;;;;;;;;5082911;28;20051;-81
2021/12/14 02:12:45;;;;;;;7.28;2.08;;;;;;;;;;5086533;28;20028;-81
2021/12/14 02:15:13;;;;;;;2.42;1.35;;;;;;;;;;5086169;28;20024;-81
2021/12/14 02:17:40;;;;;;;2.50;1.58;;;;;;;;;;5084833;28;20036;-81
2021/12/14 02:20:09;;;;;;;2.83;1.55;;;4.70;99.90;;;;;;5082806;28;20133;-81
2021/12/14 02:22:35;;;;;;;4.82;1.70;;;4.90;99.90;;;;;;5081545;28;20051;-81
2021/12/14 02:25:01;;;;;;;5.05;1.70;;;;;;;;;;5087426;28;20031;-82
2021/12/14 02:27:35;;;;;;;5.50;2.03;;;;;;;;;;5076726;28;20434;-81
2021/12/14 02:30:05;;;;;;;10.02;2.03;;;;;;;;;;5085502;28;20024;-81
2021/12/14 02:32:31;;;;;;;5.50;2.15;;;;;;;;;;5086977;28;20020;-81
2021/12/14 02:35:00;;;;;;;3.72;1.27;;;;;;;;;;5083453;28;20029;-81
2021/12/14 02:37:46;;;;;;;4.65;1.52;;;;;;;;;;5081658;28;20511;-81
2021/12/14 02:40:53;;;;;;;4.75;1.33;;;;;;;;;;5083513;28;20028;-81
2021/12/14 02:43:29;;;;;;;4.80;1.52;;;;;;;;;;5087011;28;20105;-82
2021/12/14 02:46:01;;;;;;;3.85;1.48;;;;;;;;;;5065724;28;20024;-81
2021/12/14 02:48:27;;;;;;;4.80;1.93;;;;;;;;;;5087789;28;20032;-81
2021/12/14 02:50:53;;;;;;;6.45;2.20;;;;;;;;;;5085940;28;20041;-81
2021/12/14 02:53:19;;;;;;;3.90;2.05;;;;;;;;;;5084631;28;20025;-81
2021/12/14 02:55:45;;;;;;;4.40;1.73;;;;;;;;;;5093214;28;20028;-81
2021/12/14 02:58:11;;;;;;;4.90;2.17;;;;;;;;;;5088281;28;20100;-81
2021/12/14 03:00:48;;;;;;;5.63;2.25;;;;;;;;;;5081106;28;20040;-81
2021/12/14 03:03:15;;;;;;;7.15;1.88;;;;;;;;;;5087692;28;20032;-82
2021/12/14 03:05:42;;;;;;;5.70;2.25;;;;;;;;;;5087632;28;20020;-81
2021/12/14 03:08:14;;;;;;;5.03;1.58;;;;;;;;;;5088131;28;20361;-81
2021/12/14 03:10:55;;;;;;;10.32;2.60;;;;;;;;;;5086185;28;20043;-81
2021/12/14 03:13:22;;;;;;;5.18;2.28;;;;;;;;;;5090486;28;20148;-81
2021/12/14 03:15:52;;;;;;;5.20;2.40;;;;;;;;;;5085149;28;20050;-81
2021/12/14 03:18:26;;;;;;;8.98;2.75;;;;;;;;;;5088060;28;20085;-81
2021/12/14 03:20:56;;;;;;;8.02;2.53;;;5.70;99.90;;;;;;5090837;28;20118;-81
2021/12/14 03:23:24;;;;;;;3.20;1.50;;;;;;;;;;5088828;28;20021;-81
2021/12/14 03:25:54;;;;;;;4.22;2.00;;;5.70;99.90;;;;;;5093204;28;20030;-81
2021/12/14 03:28:22;;;;;;;5.13;2.22;;;;;;;;;;5087570;28;20032;-81
2021/12/14 03:30:48;;;;;;;7.60;2.00;;;;;;;;;;5087320;28;20043;-81
2021/12/14 03:33:19;;;;;;;7.22;2.55;;;;;;;;;;5085492;28;20087;-81
2021/12/14 03:35:50;;;;;;;3.65;2.08;;;;;;;;;;5086883;28;20024;-80
2021/12/14 03:38:37;;;;;;;7.97;1.33;;;;;;;;;;5089912;28;20028;-80
2021/12/14 03:41:14;;;;;;;5.72;1.85;;;;;;;;;;5083914;28;20548;-81
2021/12/14 03:43:43;;;;;;;3.72;2.08;;;;;;;;;;5084366;28;20032;-81
2021/12/14 03:46:09;;;;;;;2.80;1.52;;;;;;;;;;5085107;28;20029;-81
2021/12/14 03:48:35;;;;;;;7.63;2.30;;;;;;;;;;5088869;28;20340;-81
2021/12/14 03:51:02;;;;;;;3.65;1.77;;;;;;;;;;5087306;28;20036;-81
2021/12/14 03:53:28;;;;;;;4.13;1.58;;;;;;;;;;5091920;28;20467;-82
2021/12/14 03:55:57;;;;;;;8.20;2.90;;;;;;;;;;5088906;28;20282;-81
2021/12/14 03:58:30;;;;;;;7.00;2.78;;;;;;;;;;5091195;28;20052;-81
2021/12/14 04:00:58;;;;;;;3.80;1.48;;;;;;;;;;5089911;28;20032;-82
2021/12/14 04:03:25;;;;;;;8.30;2.28;;;;;;;;;;5089420;28;20101;-81
2021/12/14 04:05:52;;;;;;;5.65;2.22;;;;;;;;;;5099501;28;20027;-80
2021/12/14 04:08:18;;;;;;;5.93;2.60;;;;;;;;;;5099963;28;20028;-80
2021/12/14 04:10:47;;;;;;;4.25;1.75;;;;;;;;;;5100619;28;20034;-81
2021/12/14 04:13:21;;;;;;;5.43;1.67;;;;;;;;;;5087887;28;20036;-81
2021/12/14 04:15:47;;;;;;;4.35;1.67;;;;;;;;;;5077904;28;20602;-81
2021/12/14 04:18:13;;;;;;;9.40;2.75;;;;;;;;;;5091211;28;20488;-81
2021/12/14 04:20:41;;;;;;;7.70;2.25;;;;;;;;;;5076725;28;20174;-81
2021/12/14 04:23:09;;;;;;;4.07;2.20;;;;;;;;;;5091584;28;20043;-81
2021/12/14 04:25:36;;;;;;;7.80;2.58;;;;;;;;;;5083980;28;20036;-81
2021/12/14 04:28:06;;;;;;;3.03;1.33;;;;;;;;;;5082374;28;20163;-81
2021/12/14 04:30:32;;;;;;;5.57;2.53;;;;;;;;;;5083441;28;20036;-81
2021/12/14 04:33:00;;;;;;;9.15;2.40;;;;;;;;;;5082638;28;20563;-81
2021/12/14 04:35:26;;;;;;;5.93;2.35;;;;;;;;;;5087808;28;20036;-81
2021/12/14 04:37:55;;;;;;;4.38;1.83;;;;;;;;;;5085001;28;20463;-81
2021/12/14 04:51:51;;;;;;;6.10;2.08;;;;;;;;;;5087343;28;20251;-81
2021/12/14 04:51:59;;;;;;;6.10;2.50;;;;;;;;;;5084229;28;20081;-81
2021/12/14 04:54:43;;;;;;;6.60;2.28;;;;;;;;;;5087079;28;20032;-82
2021/12/14 04:57:25;;;;;;;8.43;3.42;;;;;;;;;;5085778;28;20071;-82
2021/12/14 04:59:53;;;;;;;4.53;2.78;;;;;;;;;;5090898;28;20020;-80
2021/12/14 05:02:22;;;;;;;6.40;1.85;;;;;;;;;;5096719;28;20068;-81
2021/12/14 05:04:48;;;;;;;7.70;2.17;;;;;;;;;;5083620;28;20028;-82
2021/12/14 05:09:53;;;;;;;5.57;2.03;;;4.70;99.90;;;;;;5081862;28;20045;-82
2021/12/14 05:12:24;;;;;;;5.82;1.92;;;;;;;;;;5086998;28;20028;-83
2021/12/14 05:14:51;;;;;;;4.47;1.75;;;;;;;;;;5084367;28;20028;-82
2021/12/14 05:17:19;;;;;;;9.43;2.95;;;;;;;;;;5088665;28;20519;-82
2021/12/14 05:19:45;;;;;;;4.15;2.17;;;;;;;;;;5072502;28;20054;-85
2021/12/14 05:22:13;;;;;;;11.25;2.90;;;;;;;;;;5079436;28;20036;-86
2021/12/14 05:24:41;;;;;;;8.43;3.08;;;;;;;;;;5090915;28;20075;-84
2021/12/14 05:27:09;;;;;;;4.75;2.60;;;;;;;;;;5079719;28;20040;-83
2021/12/14 05:29:35;;;;;;;6.97;2.22;;;;;;;;;;5082840;28;20031;-84
2021/12/14 05:32:02;;;;;;;9.98;3.80;;;;;;;;;;5079465;28;20039;-83
2021/12/14 05:34:29;;;;;;;10.63;3.10;;;;;;;;;;5078829;28;20173;-82
2021/12/14 05:36:55;;;;;;;9.60;2.50;;;;;;;;;;5085614;28;20388;-82
2021/12/14 05:39:40;;;;;;;7.07;2.05;;;;;;;;;;5083159;28;20027;-82
2021/12/14 05:44:33;;;;;;;5.95;2.05;;;;;;;;;;5078706;28;20020;-80
2021/12/14 05:47:00;;;;;;;9.15;2.50;;;;;;;;;;5084525;28;20032;-82
2021/12/14 05:49:28;;;;;;;8.73;2.35;;;;;;;;;;5084568;28;20036;-81
2021/12/14 05:51:55;;;;;;;11.13;4.43;;;;;;;;;;5077400;28;20031;-83
2021/12/14 05:54:26;;;;;;;9.98;3.25;;;;;;;;;;5087594;28;20033;-82
2021/12/14 05:56:52;;;;;;;9.02;3.58;;;;;;;;;;5078568;28;20029;-82
2021/12/14 05:59:25;;;;;;;7.70;2.97;;;;;;;;;;5086924;28;20017;-81
2021/12/14 06:01:51;;;;;;;7.18;2.55;;;;;;;;;;5091003;28;20035;-82
2021/12/14 06:04:18;;;;;;;7.55;2.05;;;;;;;;;;5089859;28;20036;-82
2021/12/14 06:06:46;;;;;;;9.40;3.90;;;;;;;;;;5078632;28;20024;-82
2021/12/14 06:09:18;;;;;;;6.72;2.22;;;;;;;;;;5076865;28;20024;-82
2021/12/14 06:11:46;;;;;;;9.77;2.38;;;;;;;;;;5071758;28;20025;-82
2021/12/14 06:14:14;;;;;;;5.28;2.45;;;;;;;;;;5079727;28;20047;-82
2021/12/14 06:16:40;;;;;;;8.93;2.55;;;;;;;;;;5080493;28;20032;-83
2021/12/14 06:19:14;;;;;;;6.47;2.65;;;;;;;;;;5080334;28;20485;-82
2021/12/14 06:21:41;;;;;;;8.98;3.20;;;;;;;;;;5074927;28;20114;-83
2021/12/14 06:24:08;;;;;;;5.90;2.97;;;;;;;;;;5084788;28;20032;-82
2021/12/14 06:26:35;;;;;;;12.15;4.00;;;;;;;;;;5086712;28;20032;-83
2021/12/14 06:29:06;;;;;;;9.35;2.80;;;;;;;;;;5097542;28;20032;-80
2021/12/14 06:31:32;;;;;;;8.95;3.10;;;;;;;;;;5087840;28;20027;-84
2021/12/14 06:34:28;;;;;;;5.40;2.20;;;5.80;99.90;;;;;;5085015;28;20029;-83
2021/12/14 06:37:28;;;;;;;5.97;2.35;;;;;;;;;;5080479;28;20051;-84
2021/12/14 06:39:57;;;;;;;13.15;3.58;;;;;;;;;;5090703;28;20023;-84
2021/12/14 06:42:23;;;;;;;11.18;4.82;;;;;;;;;;5081555;28;20032;-84
2021/12/14 06:44:49;;;;;;;17.58;5.18;;;;;;;;;;5085437;28;20130;-84
2021/12/14 06:47:15;;;;;;;11.80;4.68;;;;;;;;;;5083192;28;20119;-83
2021/12/14 06:49:41;;;;;;;13.60;3.78;;;;;;;;;;5075706;28;20117;-83
2021/12/14 06:52:07;;;;;;;19.92;6.30;;;;;;;;;;5076641;28;20028;-84
2021/12/14 06:54:33;;;;;;;14.02;6.25;;;;;;;;;;5089131;28;20024;-83
2021/12/14 06:57:03;;;;;;;10.48;3.83;;;;;;;;;;5089669;28;20040;-84
2021/12/14 06:59:29;;;;;;;8.98;3.35;;;;;;;;;;5087375;28;20410;-84
2021/12/14 07:01:57;;;;;;;11.77;3.72;;;;;;;;;;5082944;28;20032;-83
2021/12/14 07:04:25;;;;;;;6.85;3.05;;;;;;;;;;5088710;28;20427;-85
2021/12/14 07:06:55;;;;;;;15.18;5.47;;;;;;;;;;5077272;28;20025;-84
2021/12/14 07:09:26;;;;;;;9.63;3.67;;;;;;;;;;5082461;28;20052;-83
2021/12/14 07:12:00;;;;;;;14.00;3.70;;;;;;;;;;5080084;28;20059;-84
2021/12/14 07:14:37;;;;;;;7.40;2.33;;;;;;;;;;5084002;28;20604;-84
2021/12/14 07:17:11;;;;;;;10.18;3.17;;;;;;;;;;5085352;28;20063;-84
2021/12/14 07:19:44;;;;;;;12.70;2.95;;;;;;;;;;5083961;28;20023;-84
2021/12/14 07:24:58;;;;;;;11.60;3.40;;;;;;;;;;5081341;28;20122;-84
2021/12/14 07:27:27;;;;;;;10.30;3.88;;;;;;;;;;5081329;28;20581;-84
2021/12/14 07:29:54;;;;;;;13.50;4.03;;;;;;;;;;5079040;28;20128;-84
2021/12/14 07:32:40;;;;;;;11.30;3.70;;;;;;;;;;5088723;28;20387;-84
2021/12/14 07:35:14;;;;;;;12.90;4.03;;;;;;;;;;5073105;28;20035;-84
2021/12/14 07:37:40;;;;;;;12.85;4.82;;;;;;;;;;5075381;28;20467;-85
2021/12/14 07:40:06;;;;;;;9.05;2.78;;;;;;;;;;5075729;28;20031;-84
2021/12/14 07:42:32;;;;;;;10.80;4.20;;;;;;;;;;5083788;28;20028;-84
2021/12/14 07:44:58;;;;;;;12.15;3.47;;;;;;;;;;5084185;28;20502;-84
2021/12/14 07:47:24;;;;;;;11.68;3.10;;;;;;;;;;5088318;28;20016;-85
2021/12/14 07:49:54;;;;;;;9.27;4.55;;;;;;;;;;5080732;28;20101;-84
2021/12/14 07:52:21;;;;;;;9.25;2.90;;;;;;;;;;5084458;28;20410;-85
2021/12/14 07:54:52;;;;;;;9.20;3.97;;;;;;;;;;5079567;28;20028;-84
2021/12/14 07:57:23;;;;;;;11.75;3.55;;;;;;;;;;5081498;28;20028;-84
2021/12/14 07:59:54;;;;;;;12.38;3.78;;;;;;;;;;5086688;28;20024;-84
2021/12/14 08:02:21;;;;;;;12.63;2.95;;;;;;;;;;5078647;28;20392;-85
2021/12/14 08:04:47;;;;;;;10.27;4.18;;;;;;;;;;5084495;28;20097;-84
2021/12/14 08:07:22;;;;;;;10.15;2.80;;;;;;;;;;5083994;28;20051;-84
2021/12/14 08:09:53;;;;;;;10.88;3.08;;;;;;;;;;5085034;28;20047;-84
2021/12/14 08:12:27;;;;;;;8.05;3.05;;;;;;;;;;5079271;28;20112;-84
2021/12/14 08:15:20;;;;;;;7.13;2.90;;;;;;;;;;5085118;28;20043;-84
2021/12/14 08:17:47;;;;;;;9.07;2.85;;;;;;;;;;5074072;28;20057;-84
2021/12/14 08:20:20;;;;;;;9.75;3.75;;;;;;;;;;5081466;28;20066;-84
2021/12/14 08:22:46;;;;;;;11.15;2.70;;;;;;;;;;5089263;28;20024;-84
2021/12/14 08:25:14;;;;;;;10.25;2.72;;;;;;;;;;5084801;28;20034;-85
2021/12/14 08:27:41;;;;;;;9.57;3.55;;;;;;;;;;5082329;28;20025;-84
2021/12/14 08:30:10;;;;;;;12.38;4.32;;;;;;;;;;5084882;28;20408;-84
2021/12/14 08:32:38;;;;;;;13.05;4.10;;;6.10;99.90;;;;;;5084857;28;20032;-84
2021/12/14 08:35:06;;;;;;;11.30;3.03;;;;;;;;;;5079014;28;20040;-84
2021/12/14 08:37:37;;;;;;;4.03;2.35;;;;;;;;;;5089343;28;20130;-85
2021/12/14 08:40:16;;;;;;;8.70;3.60;;;6.00;99.90;;;;;;5082927;28;20110;-84
2021/12/14 08:42:53;;;;;;;10.10;2.92;;;;;;;;;;5081446;28;20028;-84
2021/12/14 08:45:25;;;;;;;11.82;3.65;;;;;;;;;;5084521;28;20039;-85
2021/12/14 08:48:08;;;;;;;8.95;3.20;;;6.00;99.90;;;;;;5078240;28;20032;-84
2021/12/14 08:50:37;;;;;;;11.82;3.65;;;;;;;;;;5080790;28;20531;-84
2021/12/14 08:53:05;;;;;;;8.73;2.40;;;;;;;;;;5085575;28;20415;-84
2021/12/14 08:55:34;;;;;;;8.00;2.97;;;;;;;;;;5083681;28;20035;-84
2021/12/14 08:58:01;;;;;;;11.32;4.15;;;;;;;;;;5098597;28;20027;-85
2021/12/14 09:00:32;;;;;;;6.75;2.30;;;5.90;99.90;;;;;;5098234;28;20058;-84
2021/12/14 09:03:00;;;;;;;11.88;3.60;;;;;;;;;;5089083;28;20380;-84
2021/12/14 09:05:32;;;;;;;10.48;3.78;;;6.00;99.90;;;;;;5081741;28;20024;-84
2021/12/14 09:07:58;;;;;;;7.40;3.63;;;;;;;;;;5085301;28;20029;-85
2021/12/14 09:10:26;;;;;;;17.27;4.38;;;;;;;;;;5082327;28;20036;-85
2021/12/14 09:12:55;;;;;;;5.70;3.55;;;;;;;;;;5079131;28;20043;-84
2021/12/14 09:15:27;;;;;;;9.88;2.85;;;;;;;;;;5078960;28;20112;-85
2021/12/14 09:17:55;;;;;;;5.25;2.13;;;6.20;99.90;;;;;;5081656;28;20049;-85
2021/12/14 09:20:27;;;;;;;9.95;3.00;;;;;;;;;;5071638;28;20486;-85
2021/12/14 09:22:56;;;;;;;5.60;2.50;;;;;;;;;;5079884;28;20020;-83
2021/12/14 09:25:26;;;;;;;8.65;3.10;;;6.00;99.90;;;;;;5079302;28;20027;-85
2021/12/14 09:27:53;;;;;;;9.02;3.03;;;;;;;;;;5075431;28;20036;-83
2021/12/14 09:30:22;;;;;;;5.47;3.60;;;6.10;99.90;;;;;;5084576;28;20032;-83
2021/12/14 09:32:48;;;;;;;7.68;3.58;;;;;;;;;;5084985;28;20036;-82
2021/12/14 09:35:19;;;;;;;10.40;3.58;;;6.10;99.90;;;;;;5084229;28;20028;-82
2021/12/14 09:37:47;;;;;;;7.88;2.63;;;;;;;;;;5084837;28;20042;-82
2021/12/14 09:40:16;;;;;;;6.22;2.88;;;;;;;;;;5083774;28;20106;-82
2021/12/14 09:42:43;;;;;;;8.98;3.63;;;;;;;;;;5085407;28;20024;-83
2021/12/14 09:45:23;;;;;;;7.55;3.17;;;6.30;99.90;;;;;;5093899;28;20062;-83
2021/12/14 09:47:49;;;;;;;10.38;2.95;;;;;;;;;;5091048;28;20039;-82
2021/12/14 09:50:20;;;;;;;10.52;3.78;;;;;;;;;;5083581;28;20039;-82
2021/12/14 09:52:47;;;;;;;10.15;3.88;;;;;;;;;;5091881;28;20028;-82
2021/12/14 09:55:17;;;;;;;8.38;3.80;;;;;;;;;;5088408;28;20040;-82
2021/12/14 09:57:45;;;;;;;9.85;3.53;;;;;;;;;;5076708;28;20035;-83
2021/12/14 10:00:29;;;;;;;8.48;2.92;;;6.10;99.90;;;;;;5087734;28;20031;-82
2021/12/14 10:02:56;;;;;;;12.60;3.78;;;;;;;;;;5092527;28;20040;-83
2021/12/14 10:05:26;;;;;;;8.82;3.72;;;;;;;;;;5082912;28;20067;-83
2021/12/14 10:07:54;;;;;;;6.30;3.15;;;;;;;;;;5086021;28;20048;-83
2021/12/14 10:10:20;;;;;;;8.77;3.67;;;;;;;;;;5090502;28;20162;-83
2021/12/14 10:12:49;;;;;;;12.88;5.57;;;;;;;;;;5079728;28;20024;-83
2021/12/14 10:15:21;;;;;;;10.48;3.65;;;6.20;99.90;;;;;;5088569;28;20063;-84
2021/12/14 10:17:47;;;;;;;11.60;3.90;;;6.00;99.90;;;;;;5084643;28;20131;-83
2021/12/14 10:20:17;;;;;;;6.43;3.75;;;;;;;;;;5087940;28;20028;-84
2021/12/14 10:22:43;;;;;;;11.55;3.30;;;;;;;;;;5083691;28;20020;-83
2021/12/14 10:25:13;;;;;;;13.70;3.60;;;6.20;99.90;;;;;;5088482;28;20117;-83
2021/12/14 10:27:40;;;;;;;10.40;3.78;;;;;;;;;;5087702;28;20032;-82
2021/12/14 10:30:11;;;;;;;11.40;3.85;;;;;;;;;;5084606;28;20044;-84
2021/12/14 10:32:37;;;;;;;10.25;3.55;;;;;;;;;;5085279;28;20112;-84
2021/12/14 10:35:10;;;;;;;11.13;3.80;;;;;;;;;;5086015;28;20039;-83
2021/12/14 10:38:10;;;;;;;7.57;2.95;;;;;;;;;;5081178;28;20038;-84
2021/12/14 10:43:15;;;;;;;7.03;2.97;;;;;;;;;;5089355;28;20039;-82
2021/12/14 10:45:48;;;;;;;10.43;4.28;;;;;;;;;;5091318;28;20472;-83
2021/12/14 10:48:15;;;;;;;9.35;3.30;;;6.50;99.90;;;;;;5080965;28;20029;-83
2021/12/14 10:50:43;;;;;;;6.63;3.28;;;6.90;99.90;;;;;;5087054;28;20400;-82
2021/12/14 10:53:09;;;;;;;10.30;3.97;;;;;;;;;;5091344;28;21441;-83
2021/12/14 10:55:39;;;;;;;8.50;3.67;;;;;;;;;;5084971;28;20081;-83
2021/12/14 10:58:08;;;;;;;10.10;4.18;;;7.40;99.90;;;;;;5088814;28;20037;-83
2021/12/14 11:00:40;;;;;;;13.60;4.90;;;;;;;;;;5093843;28;20028;-83
2021/12/14 11:03:17;;;;;;;12.05;3.90;;;;;;;;;;5067925;28;20031;-83
2021/12/14 11:05:46;;;;;;;9.00;4.53;;;;;;;;;;5086412;28;20043;-82
2021/12/14 11:08:32;;;;;;;10.40;3.75;;;;;;;;;;5081820;28;20044;-82
2021/12/14 11:10:58;;;;;;;7.35;3.85;;;;;;;;;;5086337;28;20046;-84
2021/12/14 11:13:24;;;;;;;10.07;3.05;;;;;;;;;;5090399;28;20029;-82
2021/12/14 11:15:54;;;;;;;6.93;3.05;;;;;;;;;;5090607;28;20166;-84
2021/12/14 11:18:23;;;;;;;9.25;3.97;;;;;;;;;;5087428;28;20413;-84
2021/12/14 11:20:49;;;;;;;10.77;4.50;;;;;;;;;;5080469;28;20103;-82
2021/12/14 11:23:18;;;;;;;12.07;4.13;;;;;;;;;;5093371;28;20480;-83
2021/12/14 11:25:47;;;;;;;11.15;3.92;;;;;;;;;;5087259;28;20070;-82
2021/12/14 11:28:16;;;;;;;10.70;3.67;;;;;;;;;;5091448;28;20419;-83
2021/12/14 11:30:44;;;;;;;8.23;4.03;;;;;;;;;;5085032;28;20050;-83
2021/12/14 11:33:16;;;;;;;9.88;4.53;;;;;;;;;;5082998;28;20400;-82
2021/12/14 11:35:48;;;;;;;10.88;3.17;;;;;;;;;;5083822;28;20020;-83
2021/12/14 11:38:33;;;;;;;12.98;4.30;;;;;;;;;;5079231;28;20048;-82
2021/12/14 11:41:00;;;;;;;13.18;4.35;;;;;;;;;;5077862;28;20452;-82
2021/12/14 11:43:30;;;;;;;10.80;3.67;;;;;;;;;;5070915;28;20058;-83
2021/12/14 11:45:56;;;;;;;11.25;3.42;;;;;;;;;;5083474;28;20115;-82
2021/12/14 11:48:30;;;;;;;10.50;3.97;;;;;;;;;;5089891;28;20153;-82
2021/12/14 11:50:57;;;;;;;10.98;4.85;;;;;;;;;;5090083;28;20380;-82
2021/12/14 11:53:23;;;;;;;11.10;3.90;;;;;;;;;;5084631;28;20028;-83
2021/12/14 11:55:49;;;;;;;12.93;3.50;;;;;;;;;;5090126;28;20024;-81
2021/12/14 11:58:31;;;;;;;17.30;4.88;;;;;;;;;;5085564;28;20040;-81
2021/12/14 12:00:56;;;;;;;17.10;4.88;;;;;;;;;;5078503;28;20032;-82
2021/12/14 12:03:26;;;;;;;10.82;3.80;;;;;;;;;;5086492;28;20017;-82
2021/12/14 12:06:00;;;;;;;11.98;4.53;;;;;;;;;;5086261;28;20024;-81
2021/12/14 12:11:13;;;;;;;10.57;4.05;;;;;;;;;;5089591;28;20031;-82
2021/12/14 12:13:40;;;;;;;8.68;3.47;;;6.60;99.90;;;;;;5082365;28;20597;-82
2021/12/14 12:16:14;;;;;;;15.75;5.07;;;6.80;99.90;;;;;;5079740;28;20108;-82
2021/12/14 12:19:00;;;;;;;13.75;4.60;;;;;;;;;;5085385;28;20029;-81
2021/12/14 12:21:28;;;;;;;14.20;4.40;;;7.50;99.90;;;;;;5088206;28;20032;-83
2021/12/14 12:23:54;;;;;;;11.93;4.18;;;;;;;;;;5091738;28;20027;-83
2021/12/14 12:26:25;;;;;;;10.70;3.17;;;;;;;;;;5081002;28;20395;-83
2021/12/14 12:28:51;;;;;;;12.60;4.32;;;;;;;;;;5085107;28;20039;-80
2021/12/14 12:31:20;;;;;;;11.90;4.25;;;;;;;;;;5104693;28;20039;-81
2021/12/14 12:33:46;;;;;;;12.52;5.40;;;;;;;;;;5106038;28;20020;-80
2021/12/14 12:36:16;;;;;;;9.57;4.38;;;;;;;;;;5107009;28;20047;-81
2021/12/14 12:38:54;;;;;;;9.50;4.25;;;;;;;;;;5085102;28;20066;-83
2021/12/14 12:41:26;;;;;;;9.40;5.13;;;;;;;;;;5088842;28;20047;-82
2021/12/14 12:44:01;;;;;;;11.88;4.82;;;;;;;;;;5078570;28;20032;-82
2021/12/14 12:46:30;;;;;;;10.15;3.42;;;;;;;;;;5086112;28;20066;-82
2021/12/14 12:49:02;;;;;;;13.77;5.07;;;;;;;;;;5083929;28;20028;-81
2021/12/14 12:51:43;;;;;;;8.35;3.85;;;;;;;;;;5083119;28;20020;-81
2021/12/14 12:54:28;;;;;;;15.32;4.78;;;;;;;;;;5081453;28;20441;-82
2021/12/14 12:57:09;;;;;;;23.67;7.22;;;;;;;;;;5087432;28;20480;-82
2021/12/14 12:59:37;;;;;;;23.15;7.05;;;;;;;;;;5088465;28;20441;-81
2021/12/14 13:02:12;;;;;;;11.70;4.80;;;;;;;;;;5086946;28;20126;-82
2021/12/14 13:04:40;;;;;;;14.35;4.05;;;7.50;99.90;;;;;;5090488;28;20028;-81
2021/12/14 13:07:06;;;;;;;14.68;5.13;;;;;;;;;;5085787;28;20028;-82
2021/12/14 13:09:34;;;;;;;18.80;5.32;;;;;;;;;;5085211;28;20031;-81
2021/12/14 13:12:00;;;;;;;12.45;4.53;;;;;;;;;;5084009;28;20039;-80
2021/12/14 13:14:26;;;;;;;18.73;5.25;;;;;;;;;;5075564;28;20499;-81
2021/12/14 13:16:52;;;;;;;15.00;4.95;;;;;;;;;;5074708;28;20024;-82
2021/12/14 13:19:23;;;;;;;11.90;4.38;;;;;;;;;;5082282;28;20055;-81
2021/12/14 13:22:03;;;;;;;14.77;3.78;;;;;;;;;;5082183;28;20032;-82
2021/12/14 13:24:29;;;;;;;13.10;4.30;;;;;;;;;;5084042;28;20028;-81
2021/12/14 13:27:05;;;;;;;13.27;4.03;;;;;;;;;;5084723;28;20232;-81
2021/12/14 13:29:34;;;;;;;18.38;5.03;;;;;;;;;;5070059;28;20039;-81
2021/12/14 13:32:08;;;;;;;12.45;3.50;;;;;;;;;;5093387;28;20085;-81
2021/12/14 13:34:37;;;;;;;14.80;4.93;;;;;;;;;;5087028;28;20020;-82
2021/12/14 13:37:04;;;;;;;11.07;4.10;;;;;;;;;;5078375;28;20045;-81
2021/12/14 13:39:30;;;;;;;12.20;4.00;;;;;;;;;;5074795;28;20111;-80
2021/12/14 13:41:59;;;;;;;15.50;4.63;;;;;;;;;;5069516;28;20029;-81
2021/12/14 13:44:30;;;;;;;14.00;5.90;;;;;;;;;;5100079;28;20038;-79
2021/12/14 13:46:56;;;;;;;17.98;6.07;;;;;;;;;;5101309;28;20061;-80
2021/12/14 13:49:23;;;;;;;13.35;4.03;;;;;;;;;;5090131;28;20043;-81
2021/12/14 13:51:49;;;;;;;21.17;5.63;;;;;;;;;;5081518;28;20039;-84
2021/12/14 13:54:15;;;;;;;12.00;4.55;;;;;;;;;;5071412;28;20032;-83
2021/12/14 13:56:42;;;;;;;13.35;4.38;;;;;;;;;;5077387;28;20048;-82
2021/12/14 13:59:10;;;;;;;12.55;4.03;;;6.60;99.90;;;;;;5075795;28;20020;-82
2021/12/14 14:01:41;;;;;;;8.77;4.20;;;;;;;;;;5084522;28;20649;-81
2021/12/14 14:04:12;;;;;;;15.98;4.45;;;7.10;99.90;;;;;;5072861;28;20093;-81
2021/12/14 14:06:38;;;;;;;9.55;3.42;;;;;;;;;;5073976;28;23179;-81
2021/12/14 14:09:08;;;;;;;11.02;4.22;;;;;;;;;;5073048;28;20031;-79
2021/12/14 14:11:39;;;;;;;8.55;3.83;;;;;;;;;;5073259;28;20020;-81
2021/12/14 14:14:07;;;;;;;10.57;4.05;;;;;;;;;;5079185;28;20763;-81
2021/12/14 14:16:38;;;;;;;12.60;3.88;;;;;;;;;;5075178;28;20032;-82
2021/12/14 14:19:06;;;;;;;12.48;4.68;;;;;;;;;;5088570;28;20605;-81
2021/12/14 14:21:32;;;;;;;10.10;3.05;;;;;;;;;;5082305;28;20032;-80
2021/12/14 14:23:58;;;;;;;12.75;4.63;;;;;;;;;;5082408;28;20033;-82
2021/12/14 14:26:36;;;;;;;11.35;4.18;;;;;;;;;;5081368;28;20369;-81
2021/12/14 14:29:13;;;;;;;9.25;4.32;;;;;;;;;;5080670;28;20115;-82
2021/12/14 14:31:47;;;;;;;17.45;4.50;;;;;;;;;;5088050;28;20028;-82
2021/12/14 14:34:21;;;;;;;11.93;3.42;;;;;;;;;;5087066;28;20028;-82
2021/12/14 14:36:56;;;;;;;10.98;3.85;;;;;;;;;;5079066;28;20395;-81
2021/12/14 14:39:23;;;;;;;13.30;4.07;;;;;;;;;;5071738;28;20032;-83
2021/12/14 14:41:51;;;;;;;7.45;3.28;;;;;;;;;;5070961;28;20044;-82
2021/12/14 14:44:21;;;;;;;8.63;4.00;;;;;;;;;;5080151;28;20028;-82
2021/12/14 14:46:52;;;;;;;10.27;3.67;;;;;;;;;;5091178;28;20027;-82
2021/12/14 14:49:18;;;;;;;14.27;5.15;;;;;;;;;;5087095;28;20040;-82
2021/12/14 14:51:53;;;;;;;12.88;3.92;;;;;;;;;;5084073;28;20574;-83
2021/12/14 14:54:34;;;;;;;8.68;4.22;;;;;;;;;;5076813;28;20094;-82
2021/12/14 14:57:09;;;;;;;12.57;4.40;;;;;;;;;;5083276;28;20403;-81
2021/12/14 14:59:35;;;;;;;14.98;5.20;;;;;;;;;;5085967;28;20031;-81
2021/12/14 15:02:02;;;;;;;14.82;5.40;;;;;;;;;;5076239;28;20026;-83
2021/12/14 15:04:28;;;;;;;12.30;4.75;;;;;;;;;;5082044;28;20036;-82
2021/12/14 15:06:54;;;;;;;15.65;4.55;;;;;;;;;;5085374;28;20433;-82
2021/12/14 15:09:27;;;;;;;9.93;3.13;;;;;;;;;;5086332;28;20028;-82
2021/12/14 15:11:56;;;;;;;12.60;4.38;;;;;;;;;;5085462;28;20559;-82